createdAt,value
2023-03-20T00:00:47.094Z,8.04
2023-03-20T00:03:15.849Z,8.06
2023-03-20T00:05:42.901Z,7.89
2023-03-20T00:08:10.175Z,7.86
2023-03-20T00:10:40.395Z,7.89
2023-03-20T00:13:12.803Z,7.83
2023-03-20T00:15:42.406Z,7.97
2023-03-20T00:18:16.669Z,8.03
2023-03-20T00:20:43.691Z,8.07
2023-03-20T00:23:10.860Z,8.14
2023-03-20T00:25:39.632Z,8.19
2023-03-20T00:28:30.688Z,8.27
2023-03-20T00:30:57.722Z,8.31
2023-03-20T00:33:27.219Z,8.44
2023-03-20T00:35:54.265Z,8.43
2023-03-20T00:38:21.355Z,8.49
2023-03-20T00:40:48.599Z,8.57
2023-03-20T00:43:16.233Z,8.58
2023-03-20T00:45:46.615Z,8.60
2023-03-20T00:48:18.593Z,8.55
2023-03-20T00:50:47.183Z,8.50
2023-03-20T00:53:14.170Z,8.46
2023-03-20T00:55:41.678Z,8.42
2023-03-20T00:58:11.617Z,8.34
2023-03-20T01:00:41.683Z,8.38
2023-03-20T01:03:15.602Z,8.27
2023-03-20T01:05:42.926Z,8.24
2023-03-20T01:08:17.432Z,8.25
2023-03-20T01:10:46.619Z,8.15
2023-03-20T01:13:25.353Z,8.23
2023-03-20T01:15:54.252Z,8.15
2023-03-20T01:18:23.141Z,8.16
2023-03-20T01:20:50.609Z,8.18
2023-03-20T01:23:20.255Z,8.22
2023-03-20T01:25:47.400Z,8.26
2023-03-20T01:28:17.066Z,8.20
2023-03-20T01:30:44.941Z,8.14
2023-03-20T01:33:17.527Z,8.16
2023-03-20T01:35:46.718Z,8.19
2023-03-20T01:38:18.178Z,8.11
2023-03-20T01:40:55.335Z,8.13
2023-03-20T01:43:23.609Z,8.09
2023-03-20T01:45:58.325Z,8.01
2023-03-20T01:48:33.425Z,7.97
2023-03-20T01:51:00.545Z,7.87
2023-03-20T01:53:30.562Z,7.82
2023-03-20T01:56:00.575Z,7.86
2023-03-20T01:58:33.798Z,7.89
2023-03-20T02:01:01.005Z,7.89
2023-03-20T02:03:31.864Z,7.90
2023-03-20T02:06:00.166Z,8.04
2023-03-20T02:08:29.430Z,7.94
2023-03-20T02:11:01.203Z,8.00
2023-03-20T02:13:31.317Z,8.08
2023-03-20T02:16:10.207Z,8.11
2023-03-20T02:18:38.793Z,8.16
2023-03-20T02:21:47.262Z,8.26
2023-03-20T02:24:53.844Z,8.20
2023-03-20T02:27:30.776Z,8.22
2023-03-20T02:30:31.481Z,8.11
2023-03-20T02:33:37.370Z,8.28
2023-03-20T02:36:27.253Z,8.31
2023-03-20T02:39:31.680Z,8.28
2023-03-20T02:42:06.277Z,8.27
2023-03-20T02:44:41.678Z,8.37
2023-03-20T02:47:14.762Z,8.43
2023-03-20T02:49:59.335Z,8.40
2023-03-20T02:52:34.572Z,8.44
2023-03-20T02:55:17.522Z,8.50
2023-03-20T02:57:56.665Z,8.55
2023-03-20T03:00:30.508Z,8.48
2023-03-20T03:03:06.884Z,8.50
2023-03-20T03:05:38.318Z,8.51
2023-03-20T03:08:07.164Z,8.58
2023-03-20T03:10:39.346Z,8.50
2023-03-20T03:13:11.464Z,8.59
2023-03-20T03:15:42.350Z,8.65
2023-03-20T03:18:15.662Z,8.58
2023-03-20T03:20:45.541Z,8.59
2023-03-20T03:23:21.769Z,8.71
2023-03-20T03:25:51.907Z,8.68
2023-03-20T03:28:26.621Z,8.73
2023-03-20T03:30:56.621Z,8.80
2023-03-20T03:33:28.554Z,8.85
2023-03-20T03:36:02.990Z,8.78
2023-03-20T03:38:37.653Z,8.82
2023-03-20T03:41:24.854Z,8.74
2023-03-20T03:43:58.688Z,8.84
2023-03-20T03:46:34.400Z,8.77
2023-03-20T03:49:04.004Z,8.97
2023-03-20T03:51:34.719Z,8.92
2023-03-20T03:54:08.241Z,8.95
2023-03-20T03:56:40.406Z,8.93
2023-03-20T03:59:12.870Z,8.97
2023-03-20T04:01:44.563Z,8.97
2023-03-20T04:04:15.276Z,9.10
2023-03-20T04:06:42.492Z,9.07
2023-03-20T04:09:09.777Z,8.96
2023-03-20T04:11:38.388Z,9.07
2023-03-20T04:14:05.438Z,9.09
2023-03-20T04:16:32.459Z,9.04
2023-03-20T04:18:59.662Z,9.05
2023-03-20T04:21:26.720Z,9.13
2023-03-20T04:23:53.769Z,9.18
2023-03-20T04:26:21.636Z,9.26
2023-03-20T04:28:50.273Z,9.29
2023-03-20T04:31:18.209Z,9.22
2023-03-20T04:33:45.569Z,9.27
2023-03-20T04:36:12.831Z,9.31
2023-03-20T04:38:39.860Z,9.14
2023-03-20T04:41:08.295Z,9.34
2023-03-20T04:43:35.286Z,9.35
2023-03-20T04:46:04.054Z,9.46
2023-03-20T04:48:31.411Z,9.48
2023-03-20T04:50:58.543Z,9.40
2023-03-20T04:53:27.232Z,9.46
2023-03-20T04:55:54.346Z,9.52
2023-03-20T04:58:22.240Z,9.56
2023-03-20T05:00:49.248Z,9.51
2023-03-20T05:03:17.829Z,9.47
2023-03-20T05:05:44.920Z,9.44
2023-03-20T05:08:12.188Z,9.40
2023-03-20T05:10:39.292Z,9.38
2023-03-20T05:13:06.248Z,9.36
2023-03-20T05:15:33.363Z,9.37
2023-03-20T05:18:00.478Z,9.44
2023-03-20T05:20:28.920Z,9.31
2023-03-20T05:22:56.055Z,9.43
2023-03-20T05:25:23.201Z,9.42
2023-03-20T05:27:50.236Z,9.30
2023-03-20T05:30:19.761Z,9.34
2023-03-20T05:32:49.365Z,9.42
2023-03-20T05:35:16.480Z,9.45
2023-03-20T05:37:45.397Z,9.41
2023-03-20T05:40:15.544Z,9.33
2023-03-20T05:42:42.730Z,9.35
2023-03-20T05:45:10.528Z,9.44
2023-03-20T05:47:37.664Z,9.40
2023-03-20T05:50:05.586Z,9.44
2023-03-20T05:52:32.600Z,9.43
2023-03-20T05:55:01.171Z,9.43
2023-03-20T05:57:28.318Z,9.42
2023-03-20T05:59:55.412Z,9.58
2023-03-20T06:02:22.505Z,9.47
2023-03-20T06:04:49.620Z,9.58
2023-03-20T06:07:16.653Z,9.58
2023-03-20T06:09:43.769Z,9.61
2023-03-20T06:12:12.676Z,9.51
2023-03-20T06:15:00.937Z,9.70
2023-03-20T06:17:27.989Z,9.75
2023-03-20T06:19:55.418Z,9.62
2023-03-20T06:22:22.464Z,9.77
2023-03-20T06:24:49.641Z,9.72
2023-03-20T06:27:18.025Z,9.54
2023-03-20T06:29:45.072Z,9.76
2023-03-20T06:32:14.803Z,9.78
2023-03-20T06:34:42.203Z,9.64
2023-03-20T06:37:11.444Z,9.76
2023-03-20T06:39:38.554Z,9.90
2023-03-20T06:42:06.341Z,9.91
2023-03-20T06:44:34.858Z,10.05
2023-03-20T06:47:02.099Z,9.97
2023-03-20T06:49:29.185Z,9.98
2023-03-20T06:51:56.486Z,10.03
2023-03-20T06:54:23.466Z,10.23
2023-03-20T06:56:50.542Z,10.20
2023-03-20T06:59:18.096Z,10.30
2023-03-20T07:01:46.749Z,10.23
2023-03-20T07:04:14.791Z,10.32
2023-03-20T07:06:41.904Z,10.52
2023-03-20T07:09:09.019Z,10.52
2023-03-20T07:11:36.087Z,10.38
2023-03-20T07:14:03.750Z,10.46
2023-03-20T07:16:31.135Z,10.69
2023-03-20T07:18:59.816Z,10.73
2023-03-20T07:21:27.070Z,10.65
2023-03-20T07:23:54.164Z,10.66
2023-03-20T07:26:21.517Z,10.76
2023-03-20T07:29:43.544Z,10.67
2023-03-20T07:32:10.673Z,10.60
2023-03-20T07:34:39.273Z,10.67
2023-03-20T07:37:06.483Z,10.69
2023-03-20T07:44:00.817Z,10.85
2023-03-20T07:46:28.066Z,10.81
2023-03-20T07:48:56.700Z,11.00
2023-03-20T07:51:25.361Z,11.23
2023-03-20T07:53:52.532Z,11.23
2023-03-20T07:56:19.601Z,11.25
2023-03-20T07:58:46.759Z,11.29
2023-03-20T08:01:13.851Z,11.53
2023-03-20T08:03:41.097Z,11.44
2023-03-20T08:06:09.780Z,11.63
2023-03-20T08:08:38.726Z,11.60
2023-03-20T08:11:06.501Z,11.70
2023-03-20T08:13:33.602Z,12.01
2023-03-20T08:16:00.639Z,11.81
2023-03-20T08:18:27.755Z,11.98
2023-03-20T08:20:54.865Z,12.35
2023-03-20T08:23:22.366Z,12.42
2023-03-20T08:25:52.141Z,12.50
2023-03-20T08:28:19.203Z,12.82
2023-03-20T08:30:47.199Z,12.54
2023-03-20T08:33:15.340Z,12.49
2023-03-20T08:35:43.611Z,12.67
2023-03-20T08:38:12.640Z,12.62
2023-03-20T08:40:40.974Z,12.83
2023-03-20T08:43:09.611Z,12.69
2023-03-20T08:45:37.247Z,13.00
2023-03-20T08:48:04.970Z,13.35
2023-03-20T08:50:33.259Z,13.64
2023-03-20T08:53:01.313Z,13.79
2023-03-20T08:55:28.355Z,13.67
2023-03-20T08:57:57.462Z,13.39
2023-03-20T09:31:19.175Z,12.64
2023-03-20T09:33:46.422Z,12.81
2023-03-20T09:36:16.729Z,12.83
2023-03-20T09:38:43.830Z,13.17
2023-03-20T09:41:17.948Z,13.18
2023-03-20T09:52:24.519Z,14.15
2023-03-20T09:54:55.399Z,14.46
2023-03-20T11:25:52.813Z,15.89
2023-03-20T11:28:27.516Z,15.73
2023-03-20T11:31:05.717Z,15.87
2023-03-20T11:33:37.834Z,16.00
2023-03-20T11:36:12.852Z,16.21
2023-03-20T11:38:45.426Z,16.32
2023-03-20T11:41:23.137Z,16.53
2023-03-20T11:43:50.759Z,16.49
2023-03-20T11:46:21.261Z,16.47
2023-03-20T11:49:21.421Z,17.11
2023-03-20T11:51:48.704Z,17.25
2023-03-20T11:54:18.876Z,16.81
2023-03-20T11:56:55.406Z,16.79
2023-03-20T11:59:25.342Z,16.95
2023-03-20T12:01:54.841Z,16.34
2023-03-20T12:04:28.494Z,16.77
2023-03-20T12:06:59.883Z,16.84
2023-03-20T12:09:35.913Z,16.81
2023-03-20T12:12:15.508Z,16.20
2023-03-20T12:14:53.187Z,16.32
2023-03-20T12:17:35.798Z,16.77
2023-03-20T12:20:14.112Z,16.73
2023-03-20T12:22:49.628Z,16.83
2023-03-20T12:25:22.316Z,16.50
2023-03-20T12:27:58.191Z,16.27
2023-03-20T12:30:32.177Z,16.83
2023-03-20T14:03:26.441Z,16.69
2023-03-20T14:05:53.526Z,16.45
2023-03-20T14:08:38.050Z,16.73
2023-03-20T14:11:15.422Z,16.70
2023-03-20T14:13:46.633Z,16.83
2023-03-20T14:16:17.606Z,16.91
2023-03-20T14:18:49.435Z,16.63
2023-03-20T14:21:23.069Z,16.76
2023-03-20T14:23:51.806Z,16.75
2023-03-20T14:26:23.659Z,16.71
2023-03-20T14:28:58.325Z,16.72
2023-03-20T14:31:31.118Z,16.65
2023-03-20T14:34:14.844Z,16.49
2023-03-20T14:36:50.674Z,16.37
2023-03-20T14:39:31.011Z,16.34
2023-03-20T14:42:06.112Z,16.82
2023-03-20T14:44:49.355Z,16.53
2023-03-20T14:47:27.055Z,16.47
2023-03-20T14:50:03.658Z,16.44
2023-03-20T15:02:01.047Z,16.65
2023-03-20T15:04:46.861Z,16.17
2023-03-20T15:07:17.785Z,15.87
2023-03-20T15:09:47.662Z,15.75
2023-03-20T15:12:17.812Z,16.05
2023-03-20T15:14:47.515Z,16.29
2023-03-20T15:17:21.277Z,16.33
2023-03-20T15:19:49.850Z,15.95
2023-03-20T15:22:20.582Z,16.28
2023-03-20T15:24:55.963Z,16.05
2023-03-20T15:27:26.345Z,16.13
2023-03-20T15:29:56.174Z,15.75
2023-03-20T15:32:24.048Z,15.77
2023-03-20T15:34:51.272Z,15.72
2023-03-20T15:37:23.635Z,15.93
2023-03-20T15:39:55.517Z,15.88
2023-03-20T15:42:25.390Z,15.82
2023-03-20T15:44:54.246Z,15.86
2023-03-20T15:47:23.863Z,15.52
2023-03-20T15:49:53.161Z,15.36
2023-03-20T15:52:29.434Z,15.54
2023-03-20T15:54:58.245Z,15.48
2023-03-20T15:57:30.736Z,15.57
2023-03-20T15:59:58.436Z,15.64
2023-03-20T16:02:26.514Z,15.71
2023-03-20T16:04:54.547Z,15.65
2023-03-20T16:07:28.511Z,15.41
2023-03-20T16:09:55.643Z,15.53
2023-03-20T16:12:22.667Z,15.52
2023-03-20T16:14:51.262Z,15.62
2023-03-20T16:17:20.923Z,15.52
2023-03-20T16:19:48.069Z,15.74
2023-03-20T16:22:23.288Z,15.77
2023-03-20T16:24:55.517Z,15.90
2023-03-20T16:27:29.216Z,15.75
2023-03-20T16:29:57.310Z,15.56
2023-03-20T16:32:32.634Z,15.74
2023-03-20T16:35:02.883Z,15.54
2023-03-20T16:37:36.631Z,15.51
2023-03-20T16:40:16.738Z,15.56
2023-03-20T16:42:44.300Z,15.19
2023-03-20T16:45:25.566Z,15.42
2023-03-20T16:48:22.417Z,15.39
2023-03-20T16:50:58.068Z,15.39
2023-03-20T16:53:29.728Z,15.37
2023-03-20T16:55:59.439Z,15.26
2023-03-20T16:58:30.166Z,15.25
2023-03-20T17:01:03.809Z,15.36
2023-03-20T17:03:36.953Z,15.11
2023-03-20T17:06:29.418Z,15.19
2023-03-20T17:09:01.320Z,15.14
2023-03-20T17:11:52.754Z,15.07
2023-03-20T17:14:19.810Z,14.82
2023-03-20T17:16:46.988Z,14.69
2023-03-20T17:19:16.949Z,14.64
2023-03-20T17:21:44.253Z,14.68
2023-03-20T17:24:12.083Z,14.81
2023-03-20T17:26:43.388Z,14.54
2023-03-20T17:29:12.071Z,14.62
2023-03-20T17:31:40.871Z,14.49
2023-03-20T17:34:10.742Z,14.56
2023-03-20T17:36:39.051Z,14.46
2023-03-20T17:39:06.328Z,14.54
2023-03-20T17:41:33.424Z,14.83
2023-03-20T17:44:01.953Z,14.56
2023-03-20T17:46:31.595Z,14.46
2023-03-20T17:49:01.529Z,14.55
2023-03-20T17:51:29.419Z,14.50
2023-03-20T17:53:58.015Z,14.44
2023-03-20T17:56:32.649Z,14.38
2023-03-20T17:59:02.849Z,14.32
2023-03-20T18:01:32.588Z,14.28
2023-03-20T18:04:00.217Z,14.36
2023-03-20T18:06:31.275Z,14.38
2023-03-20T18:08:59.910Z,14.26
2023-03-20T18:11:27.810Z,14.23
2023-03-20T18:13:54.887Z,14.06
2023-03-20T18:16:26.314Z,13.93
2023-03-20T18:18:54.265Z,14.19
2023-03-20T18:21:22.465Z,14.43
2023-03-20T18:23:49.531Z,14.45
2023-03-20T18:26:20.341Z,14.39
2023-03-20T18:28:48.630Z,14.32
2023-03-20T18:31:19.053Z,14.30
2023-03-20T18:33:48.874Z,14.46
2023-03-20T18:36:18.530Z,14.42
2023-03-20T18:38:46.169Z,14.39
2023-03-20T18:41:13.560Z,14.39
2023-03-20T18:43:41.197Z,14.42
2023-03-20T18:46:13.316Z,14.38
2023-03-20T18:48:41.441Z,14.31
2023-03-20T18:51:10.161Z,14.22
2023-03-20T18:53:37.693Z,14.21
2023-03-20T18:56:07.422Z,14.21
2023-03-20T18:58:34.476Z,14.20
2023-03-20T19:01:01.711Z,14.29
2023-03-20T19:03:29.273Z,14.36
2023-03-20T19:05:57.991Z,14.23
2023-03-20T19:08:26.899Z,14.21
2023-03-20T19:10:54.244Z,14.20
2023-03-20T19:13:22.142Z,14.22
2023-03-20T19:16:01.665Z,14.24
2023-03-20T19:18:55.619Z,14.30
2023-03-20T19:21:26.671Z,14.33
2023-03-20T19:23:56.758Z,14.32
2023-03-20T19:26:32.024Z,14.31
2023-03-20T19:29:01.421Z,14.19
2023-03-20T19:31:29.365Z,14.10
2023-03-20T19:34:01.668Z,14.08
2023-03-20T19:36:36.736Z,14.09
2023-03-20T19:39:16.150Z,14.09
2023-03-20T19:41:43.445Z,14.06
2023-03-20T19:44:55.141Z,13.96
2023-03-20T19:47:52.226Z,14.08
2023-03-20T19:50:41.633Z,13.92
2023-03-20T19:53:47.528Z,13.82
2023-03-20T19:56:41.920Z,13.96
2023-03-20T19:59:43.792Z,13.78
2023-03-20T20:02:11.776Z,13.95
2023-03-20T20:04:38.906Z,13.96
2023-03-20T20:07:47.618Z,13.98
2023-03-20T20:09:53.186Z,14.02
2023-03-20T20:12:21.674Z,14.03
2023-03-20T20:15:10.844Z,13.85
2023-03-20T20:17:38.374Z,14.05
2023-03-20T20:20:07.275Z,13.80
2023-03-20T20:22:34.955Z,13.85
2023-03-20T20:25:02.215Z,13.73
2023-03-20T20:27:31.690Z,13.60
2023-03-20T20:29:59.196Z,13.73
2023-03-20T20:32:28.706Z,13.80
2023-03-20T20:40:32.178Z,13.78
2023-03-20T20:46:48.863Z,13.74
2023-03-20T20:49:19.751Z,13.81
2023-03-20T20:51:47.487Z,13.92
2023-03-20T20:54:14.745Z,13.85
2023-03-20T20:56:42.104Z,13.86
2023-03-20T20:59:09.500Z,13.69
2023-03-20T21:01:51.156Z,13.46
2023-03-20T21:05:08.923Z,13.79
2023-03-20T21:07:36.635Z,13.83
2023-03-20T21:10:05.932Z,13.59
2023-03-20T21:12:42.421Z,13.75
2023-03-20T21:15:10.631Z,13.70
2023-03-20T21:17:50.435Z,13.44
2023-03-20T21:20:24.951Z,13.63
2023-03-20T21:22:52.312Z,13.50
2023-03-20T21:25:28.964Z,13.55
2023-03-20T21:28:03.289Z,13.49
2023-03-20T21:30:30.556Z,13.77
2023-03-20T21:32:59.247Z,13.64
2023-03-20T21:35:26.732Z,13.71
2023-03-20T21:40:42.136Z,13.84
2023-03-20T21:43:10.183Z,13.70
2023-03-20T21:46:25.166Z,13.73
2023-03-20T21:57:28.924Z,13.64
2023-03-20T22:00:14.981Z,13.71
2023-03-20T22:02:28.161Z,13.79
2023-03-20T22:05:41.836Z,13.69
2023-03-20T22:08:49.583Z,13.68
2023-03-20T22:11:38.656Z,13.91
2023-03-20T22:17:19.881Z,13.82
2023-03-20T22:36:38.566Z,13.88
2023-03-20T22:39:15.955Z,14.01
2023-03-20T22:42:13.704Z,13.89
2023-03-20T22:47:05.316Z,13.97
2023-03-20T22:49:32.315Z,13.86
2023-03-20T22:52:45.421Z,13.95
2023-03-20T22:54:48.094Z,13.97
2023-03-20T22:57:15.812Z,13.90
2023-03-20T22:59:43.007Z,13.98
2023-03-20T23:02:10.114Z,13.70
2023-03-20T23:04:37.518Z,13.76
2023-03-20T23:07:05.706Z,13.77
2023-03-20T23:09:32.953Z,13.85
2023-03-20T23:12:01.658Z,13.75
2023-03-20T23:14:36.284Z,13.94
2023-03-20T23:17:10.250Z,13.87
2023-03-20T23:19:46.969Z,13.80
2023-03-20T23:22:17.581Z,13.79
2023-03-20T23:24:45.688Z,13.80
